Time;durP1;ratioP1;P1;durP2;ratioP2;P2;SDS_P1;SDS_P2;PMS_P1;PMS_P2;Temp;Humidity;BMP_temperature;BMP_pressure;BME280_temperature;BME280_humidity;BME280_pressure;Samples;Min_cycle;Max_cycle;Signal;HPM_P1;HPM_P2
2024/03/08 00:06:04;;;;;;;45.57;27.20;;;-2.20;99.90;;;;;;5695826;24;20338;-87
2024/03/08 00:31:44;;;;;;;44.90;25.80;;;-2.50;99.90;;;;;;5616064;25;20478;-87
2024/03/08 01:06:49;;;;;;;46.33;27.60;;;-2.80;99.90;;;;;;5735928;24;20554;-88
2024/03/08 01:22:29;;;;;;;51.73;28.07;;;-2.60;99.90;;;;;;5670536;24;20778;-88
2024/03/08 01:52:25;;;;;;;52.80;27.43;;;-2.80;99.90;;;;;;5608499;24;20263;-89
2024/03/08 02:18:14;;;;;;;56.90;31.83;;;-3.10;99.90;;;;;;5774581;24;20199;-87
2024/03/08 02:48:44;;;;;;;62.93;38.00;;;-3.30;99.90;;;;;;5708299;24;20826;-88
2024/03/08 03:13:30;;;;;;;78.90;44.53;;;-3.10;99.90;;;;;;5843224;24;20725;-87
2024/03/08 03:34:32;;;;;;;71.83;41.60;;;-3.40;99.90;;;;;;5774805;24;20531;-89
2024/03/08 03:38:51;;;;;;;75.50;43.50;;;-3.50;99.90;;;;;;5729755;24;20217;-88
2024/03/08 03:54:34;;;;;;;70.57;41.23;;;-3.30;99.90;;;;;;5869126;24;20338;-86
2024/03/08 04:19:49;;;;;;;76.83;43.70;;;-3.40;99.90;;;;;;5879869;24;20214;-86
2024/03/08 05:46:19;;;;;;;125.50;67.83;;;-3.30;99.90;;;;;;5918380;23;20270;-88
2024/03/08 06:16:30;;;;;;;121.40;65.40;;;-2.10;99.90;;;;;;5913009;23;20161;-80
2024/03/08 06:52:18;;;;;;;97.13;58.57;;;-0.40;99.90;;;;;;5673377;24;20699;-81
2024/03/08 07:22:27;;;;;;;66.33;41.50;;;0.80;99.90;;;;;;5746805;24;20430;-82
2024/03/08 07:52:27;;;;;;;43.37;25.57;;;1.50;99.90;;;;;;5681838;24;20765;-82
2024/03/08 08:28:35;;;;;;;43.67;24.80;;;3.00;99.90;;;;;;5725987;24;20621;-83
2024/03/08 08:48:35;;;;;;;35.90;23.00;;;3.70;92.90;;;;;;5829487;23;20212;-83
2024/03/08 09:14:14;;;;;;;23.57;15.43;;;4.50;83.70;;;;;;5770291;24;20193;-80
2024/03/08 09:44:05;;;;;;;18.67;13.00;;;5.00;75.40;;;;;;5555763;24;21040;-81
2024/03/08 10:09:53;;;;;;;23.17;13.37;;;5.30;71.50;;;;;;5773145;24;20208;-80
2024/03/08 10:29:51;;;;;;;20.77;12.70;;;5.60;69.00;;;;;;5607750;24;20268;-82
2024/03/08 10:55:44;;;;;;;17.33;11.77;;;6.00;61.90;;;;;;5608097;24;20326;-82
2024/03/08 11:25:32;;;;;;;20.30;11.07;;;6.50;57.90;;;;;;5739665;23;20543;-78
2024/03/08 12:26:37;;;;;;;19.37;11.07;;;7.20;51.70;;;;;;5668066;24;20652;-82
2024/03/08 12:56:59;;;;;;;17.27;10.23;;;7.60;47.10;;;;;;5687760;24;20490;-86
2024/03/08 13:22:27;;;;;;;21.00;10.70;;;7.70;46.00;;;;;;5699869;24;20608;-85
2024/03/08 13:43:14;;;;;;;17.67;10.67;;;8.10;45.70;;;;;;5796073;24;20765;-84
2024/03/08 13:47:33;;;;;;;17.97;11.03;;;8.30;45.00;;;;;;5713635;24;20597;-85
2024/03/08 15:49:56;;;;;;;15.67;10.57;;;6.70;46.00;;;;;;5627387;24;21028;-87
2024/03/08 16:19:47;;;;;;;17.83;10.37;;;4.90;45.60;;;;;;5712961;24;20673;-87
2024/03/08 16:29:55;;;;;;;18.37;10.83;;;4.30;48.00;;;;;;6125406;23;20213;31
2024/03/08 17:06:05;;;;;;;20.67;12.43;;;3.50;75.60;;;;;;5861729;24;20193;-89
2024/03/08 17:10:24;;;;;;;22.07;11.40;;;3.30;77.20;;;;;;5785798;24;20446;-87
2024/03/08 17:31:01;;;;;;;19.77;11.23;;;2.50;84.90;;;;;;5833936;24;20475;-85
2024/03/08 17:51:30;;;;;;;20.50;11.03;;;2.00;88.20;;;;;;5870551;23;20270;-86
2024/03/08 18:16:56;;;;;;;20.13;12.13;;;1.50;93.20;;;;;;5797151;24;20587;-87
2024/03/08 18:42:09;;;;;;;24.23;12.07;;;0.90;96.10;;;;;;5805212;24;20547;-87
2024/03/08 19:53:07;;;;;;;55.07;29.27;;;0.00;99.90;;;;;;5660498;24;20256;-87
2024/03/08 20:13:40;;;;;;;30.47;16.67;;;-0.60;99.90;;;;;;5566334;25;20244;-86
2024/03/08 20:59:10;;;;;;;30.80;18.83;;;-1.50;99.90;;;;;;5789580;24;20195;-85
2024/03/08 21:24:21;;;;;;;36.10;18.60;;;-1.60;99.90;;;;;;5697068;24;20187;-85
2024/03/08 21:44:23;;;;;;;37.10;18.60;;;-1.60;99.90;;;;;;5590220;25;20662;-86
2024/03/08 22:10:19;;;;;;;53.13;27.53;;;-1.70;99.90;;;;;;5712372;24;20571;-88
2024/03/08 22:35:01;;;;;;;54.47;29.97;;;-1.70;99.90;;;;;;5571165;25;21097;-88
